createdAt,value
2022-09-30T00:01:12.096Z,99111.00
2022-09-30T00:03:39.846Z,99112.72
2022-09-30T00:06:09.223Z,99108.47
2022-09-30T00:08:37.386Z,99111.03
2022-09-30T00:11:07.552Z,99121.38
2022-09-30T00:13:36.875Z,99121.38
2022-09-30T00:16:06.237Z,99117.19
2022-09-30T00:18:34.121Z,99119.75
2022-09-30T00:21:01.839Z,99108.56
2022-09-30T00:23:29.548Z,99109.47
2022-09-30T00:25:59.842Z,99107.75
2022-09-30T00:28:27.990Z,99100.94
2022-09-30T00:30:55.927Z,99112.06
2022-09-30T00:33:24.858Z,99108.63
2022-09-30T00:35:52.446Z,99117.19
2022-09-30T00:38:19.987Z,99107.75
2022-09-30T00:40:47.960Z,99104.28
2022-09-30T00:43:17.877Z,99114.63
2022-09-30T00:45:52.250Z,99118.91
2022-09-30T00:48:25.165Z,99120.59
2022-09-30T00:50:55.471Z,99132.56
2022-09-30T00:53:29.819Z,99141.06
2022-09-30T00:56:00.646Z,99136.66
2022-09-30T00:58:32.104Z,99134.91
2022-09-30T01:01:02.583Z,99131.47
2022-09-30T01:03:31.969Z,99133.16
2022-09-30T01:06:00.951Z,99139.16
2022-09-30T01:08:29.504Z,99133.94
2022-09-30T01:10:57.080Z,99138.94
2022-09-30T01:13:31.965Z,99139.63
2022-09-30T01:16:14.427Z,99137.09
2022-09-30T01:18:55.925Z,99136.25
2022-09-30T01:21:52.960Z,99132.72
2022-09-30T01:24:41.325Z,99139.50
2022-09-30T01:27:21.361Z,99141.09
2022-09-30T01:30:10.200Z,99150.44
2022-09-30T01:32:56.741Z,99147.69
2022-09-30T01:35:33.322Z,99145.13
2022-09-30T01:38:09.298Z,99143.41
2022-09-30T01:40:43.736Z,99150.97
2022-09-30T01:43:16.215Z,99154.28
2022-09-30T01:45:48.688Z,99156.72
2022-09-30T01:48:23.624Z,99157.63
2022-09-30T01:50:56.974Z,99159.34
2022-09-30T01:53:32.577Z,99155.91
2022-09-30T01:56:05.235Z,99155.91
2022-09-30T01:58:39.849Z,99164.38
2022-09-30T02:01:12.230Z,99171.19
2022-09-30T02:03:48.790Z,99166.97
2022-09-30T02:06:21.657Z,99168.81
2022-09-30T02:08:55.113Z,99177.28
2022-09-30T02:11:25.251Z,99187.53
2022-09-30T02:13:57.659Z,99183.34
2022-09-30T02:16:32.701Z,99188.41
2022-09-30T02:19:07.274Z,99187.53
2022-09-30T02:21:41.115Z,99179.81
2022-09-30T02:24:12.732Z,99190.91
2022-09-30T02:26:43.736Z,99188.34
2022-09-30T02:29:16.321Z,99189.19
2022-09-30T02:31:45.861Z,99191.69
2022-09-30T02:34:20.363Z,99202.03
2022-09-30T02:36:52.643Z,99200.31
2022-09-30T02:39:27.656Z,99196.81
2022-09-30T02:42:02.565Z,99200.22
2022-09-30T02:44:31.749Z,99196.03
2022-09-30T02:47:10.727Z,99196.81
2022-09-30T02:49:45.633Z,99195.31
2022-09-30T02:52:21.907Z,99197.97
2022-09-30T02:54:59.472Z,99192.84
2022-09-30T02:57:37.354Z,99198.91
2022-09-30T03:00:11.792Z,99194.56
2022-09-30T03:02:40.612Z,99203.22
2022-09-30T03:05:10.248Z,99201.50
2022-09-30T03:07:38.666Z,99196.38
2022-09-30T03:10:13.956Z,99202.38
2022-09-30T03:12:53.907Z,99197.28
2022-09-30T03:15:39.589Z,99208.34
2022-09-30T03:18:18.253Z,99213.47
2022-09-30T03:20:58.672Z,99216.03
2022-09-30T03:24:07.467Z,99215.16
2022-09-30T03:26:43.771Z,99211.69
2022-09-30T03:29:20.025Z,99215.94
2022-09-30T03:32:03.488Z,99216.72
2022-09-30T03:34:38.914Z,99212.53
2022-09-30T03:37:18.181Z,99216.03
2022-09-30T03:39:57.798Z,99221.91
2022-09-30T03:42:30.289Z,99219.44
2022-09-30T03:45:06.796Z,99217.75
2022-09-30T03:47:38.828Z,99232.28
2022-09-30T03:50:10.560Z,99226.34
2022-09-30T03:52:39.545Z,99229.84
2022-09-30T03:55:09.429Z,99236.66
2022-09-30T03:57:36.955Z,99235.00
2022-09-30T04:00:06.205Z,99229.97
2022-09-30T04:02:37.452Z,99236.06
2022-09-30T04:05:06.078Z,99243.69
2022-09-30T04:07:34.123Z,99248.78
2022-09-30T04:10:03.040Z,99249.63
2022-09-30T04:12:30.537Z,99246.22
2022-09-30T04:14:58.136Z,99248.91
2022-09-30T04:17:25.738Z,99250.66
2022-09-30T04:19:53.257Z,99252.34
2022-09-30T04:22:25.537Z,99258.22
2022-09-30T04:24:53.920Z,99258.06
2022-09-30T04:27:23.192Z,99262.38
2022-09-30T04:29:50.808Z,99256.50
2022-09-30T04:32:18.328Z,99263.38
2022-09-30T04:34:45.873Z,99271.97
2022-09-30T04:37:13.947Z,99260.97
2022-09-30T04:39:41.833Z,99267.09
2022-09-30T04:42:09.445Z,99264.53
2022-09-30T04:44:38.394Z,99262.00
2022-09-30T04:47:06.667Z,99271.47
2022-09-30T04:49:34.235Z,99268.06
2022-09-30T04:52:02.034Z,99273.16
2022-09-30T04:54:29.642Z,99273.16
2022-09-30T04:56:57.161Z,99271.41
2022-09-30T04:59:24.778Z,99266.25
2022-09-30T05:01:54.448Z,99266.25
2022-09-30T05:04:22.010Z,99272.34
2022-09-30T05:06:49.859Z,99274.94
2022-09-30T05:09:17.426Z,99269.13
2022-09-30T05:11:45.035Z,99275.13
2022-09-30T05:14:12.621Z,99274.25
2022-09-30T05:16:40.178Z,99276.00
2022-09-30T05:19:09.105Z,99278.75
2022-09-30T05:21:36.757Z,99275.25
2022-09-30T05:24:04.714Z,99270.06
2022-09-30T05:26:32.883Z,99274.34
2022-09-30T05:29:00.414Z,99279.47
2022-09-30T05:31:28.047Z,99292.25
2022-09-30T05:33:58.071Z,99293.94
2022-09-30T05:36:27.568Z,99302.47
2022-09-30T05:38:55.717Z,99305.69
2022-09-30T05:41:24.326Z,99302.19
2022-09-30T05:43:52.005Z,99301.28
2022-09-30T05:46:20.890Z,99309.75
2022-09-30T05:48:48.670Z,99307.13
2022-09-30T05:51:16.330Z,99312.19
2022-09-30T05:53:45.219Z,99320.63
2022-09-30T05:56:13.217Z,99324.75
2022-09-30T05:58:41.999Z,99334.03
2022-09-30T06:01:13.852Z,99337.50
2022-09-30T06:03:42.668Z,99336.66
2022-09-30T06:06:10.696Z,99339.16
2022-09-30T06:08:38.324Z,99347.81
2022-09-30T06:11:12.666Z,99347.00
2022-09-30T06:13:40.654Z,99354.03
2022-09-30T06:16:09.474Z,99355.03
2022-09-30T06:18:39.015Z,99366.38
2022-09-30T06:21:06.795Z,99365.75
2022-09-30T06:23:35.048Z,99373.59
2022-09-30T06:26:05.447Z,99376.31
2022-09-30T06:28:35.451Z,99384.06
2022-09-30T06:31:03.238Z,99378.94
2022-09-30T06:33:31.847Z,99381.56
2022-09-30T06:35:59.535Z,99388.59
2022-09-30T06:38:28.597Z,99386.16
2022-09-30T06:40:56.620Z,99399.06
2022-09-30T06:43:24.129Z,99402.53
2022-09-30T06:46:18.850Z,99404.38
2022-09-30T06:48:49.305Z,99401.91
2022-09-30T06:51:16.999Z,99398.47
2022-09-30T06:53:44.561Z,99403.47
2022-09-30T06:56:12.719Z,99400.84
2022-09-30T06:58:41.272Z,99408.53
2022-09-30T07:01:08.803Z,99408.59
2022-09-30T07:03:37.277Z,99408.53
2022-09-30T07:06:07.646Z,99407.75
2022-09-30T07:08:36.816Z,99409.59
2022-09-30T07:11:14.526Z,99405.22
2022-09-30T07:13:43.064Z,99411.38
2022-09-30T07:16:11.908Z,99407.06
2022-09-30T07:18:42.184Z,99401.91
2022-09-30T07:21:12.449Z,99413.16
2022-09-30T07:23:47.437Z,99420.19
2022-09-30T07:26:16.570Z,99432.50
2022-09-30T07:28:45.082Z,99430.03
2022-09-30T07:34:06.879Z,99431.09
2022-09-30T07:36:37.690Z,99430.16
2022-09-30T07:39:08.062Z,99436.13
2022-09-30T07:41:38.700Z,99439.56
2022-09-30T07:44:10.154Z,99445.56
2022-09-30T07:46:39.066Z,99453.38
2022-09-30T07:49:09.225Z,99449.88
2022-09-30T07:51:40.169Z,99454.34
2022-09-30T07:54:11.877Z,99446.66
2022-09-30T07:59:27.895Z,99449.47
2022-09-30T08:01:55.892Z,99456.59
2022-09-30T08:04:25.625Z,99464.50
2022-09-30T08:06:56.635Z,99468.97
2022-09-30T08:09:27.026Z,99471.72
2022-09-30T08:11:54.994Z,99477.97
2022-09-30T08:14:24.882Z,99470.38
2022-09-30T08:16:53.946Z,99473.94
2022-09-30T08:19:23.254Z,99482.78
2022-09-30T08:21:52.921Z,99478.66
2022-09-30T08:24:23.273Z,99494.47
2022-09-30T08:26:52.706Z,99497.53
2022-09-30T08:29:35.644Z,99493.56
2022-09-30T08:32:08.313Z,99489.47
2022-09-30T08:34:36.179Z,99497.34
2022-09-30T08:37:08.775Z,99497.50
2022-09-30T08:39:38.914Z,99503.59
2022-09-30T08:42:38.828Z,99514.00
2022-09-30T08:45:18.745Z,99506.47
2022-09-30T08:47:56.825Z,99513.56
2022-09-30T08:50:31.571Z,99513.66
2022-09-30T08:53:01.302Z,99512.91
2022-09-30T08:55:38.075Z,99512.06
2022-09-30T08:58:07.208Z,99521.56
2022-09-30T09:00:35.482Z,99530.22
2022-09-30T09:03:04.419Z,99523.31
2022-09-30T09:05:42.461Z,99534.50
2022-09-30T09:08:22.411Z,99525.91
2022-09-30T09:11:00.792Z,99535.44
2022-09-30T09:13:41.316Z,99536.38
2022-09-30T09:16:16.359Z,99534.63
2022-09-30T09:19:00.143Z,99537.19
2022-09-30T09:21:35.837Z,99542.38
2022-09-30T09:24:04.564Z,99538.97
2022-09-30T09:26:37.651Z,99534.66
2022-09-30T09:29:21.588Z,99529.47
2022-09-30T09:31:49.237Z,99527.75
2022-09-30T09:34:16.876Z,99531.19
2022-09-30T09:36:56.134Z,99524.28
2022-09-30T09:39:47.822Z,99521.69
2022-09-30T09:42:31.435Z,99515.66
2022-09-30T09:45:01.308Z,99509.56
2022-09-30T09:47:28.869Z,99515.56
2022-09-30T09:49:59.364Z,99517.19
2022-09-30T09:52:44.365Z,99511.97
2022-09-30T09:55:13.187Z,99518.75
2022-09-30T09:57:42.066Z,99517.06
2022-09-30T10:00:28.587Z,99529.13
2022-09-30T10:03:04.810Z,99519.44
2022-09-30T10:05:39.431Z,99527.31
2022-09-30T10:08:12.445Z,99518.66
2022-09-30T10:10:49.779Z,99523.94
2022-09-30T10:13:21.597Z,99520.63
2022-09-30T10:15:50.847Z,99519.03
2022-09-30T10:18:22.511Z,99525.91
2022-09-30T10:20:55.940Z,99527.63
2022-09-30T10:23:26.318Z,99531.16
2022-09-30T10:26:07.781Z,99521.47
2022-09-30T10:28:47.107Z,99529.97
2022-09-30T10:31:22.922Z,99520.34
2022-09-30T10:33:58.075Z,99530.78
2022-09-30T10:36:31.900Z,99522.97
2022-09-30T10:39:05.672Z,99520.34
2022-09-30T10:41:36.427Z,99521.13
2022-09-30T10:44:13.371Z,99517.53
2022-09-30T10:46:43.117Z,99515.44
2022-09-30T10:49:25.645Z,99521.47
2022-09-30T10:51:53.411Z,99517.84
2022-09-30T10:54:47.730Z,99520.88
2022-09-30T10:57:17.097Z,99521.28
2022-09-30T10:59:47.718Z,99521.63
2022-09-30T11:02:26.322Z,99521.56
2022-09-30T11:05:02.801Z,99525.78
2022-09-30T11:07:34.546Z,99520.19
2022-09-30T11:10:07.682Z,99525.09
2022-09-30T11:12:45.076Z,99522.31
2022-09-30T11:15:22.568Z,99528.47
2022-09-30T11:17:56.201Z,99512.31
2022-09-30T11:20:28.737Z,99521.06
2022-09-30T11:23:03.154Z,99515.59
2022-09-30T11:25:41.435Z,99517.66
2022-09-30T11:28:26.716Z,99513.81
2022-09-30T11:31:06.951Z,99510.22
2022-09-30T11:33:51.726Z,99517.34
2022-09-30T11:36:27.886Z,99517.00
2022-09-30T11:39:11.152Z,99519.94
2022-09-30T11:41:41.284Z,99509.81
2022-09-30T11:44:21.133Z,99510.84
2022-09-30T11:47:02.317Z,99511.22
2022-09-30T11:49:57.827Z,99512.69
2022-09-30T11:52:33.885Z,99513.72
2022-09-30T11:55:21.991Z,99510.56
2022-09-30T11:57:54.400Z,99509.13
2022-09-30T12:00:22.740Z,99513.50
2022-09-30T12:02:55.848Z,99512.81
2022-09-30T12:05:27.404Z,99511.41
2022-09-30T12:07:59.533Z,99507.50
2022-09-30T12:10:32.731Z,99502.31
2022-09-30T12:13:05.508Z,99507.66
2022-09-30T12:15:35.153Z,99505.53
2022-09-30T12:18:07.472Z,99502.16
2022-09-30T12:20:39.440Z,99504.09
2022-09-30T12:23:16.708Z,99499.34
2022-09-30T12:25:48.411Z,99500.28
2022-09-30T12:28:42.750Z,99506.59
2022-09-30T12:31:34.486Z,99513.13
2022-09-30T12:34:18.051Z,99513.72
2022-09-30T12:37:04.060Z,99507.94
2022-09-30T12:40:01.249Z,99507.16
2022-09-30T12:42:51.342Z,99517.91
2022-09-30T12:45:39.905Z,99512.56
2022-09-30T12:48:15.142Z,99509.59
2022-09-30T12:50:49.914Z,99501.03
2022-09-30T12:53:22.643Z,99505.41
2022-09-30T12:55:50.771Z,99503.69
2022-09-30T12:58:26.207Z,99500.78
2022-09-30T13:01:01.908Z,99501.78
2022-09-30T13:03:29.494Z,99500.50
2022-09-30T13:06:06.332Z,99499.78
2022-09-30T13:08:48.830Z,99511.53
2022-09-30T13:11:34.173Z,99511.13
2022-09-30T13:14:13.701Z,99522.69
2022-09-30T13:17:02.097Z,99511.69
2022-09-30T13:19:36.093Z,99518.94
2022-09-30T13:22:52.929Z,99510.56
2022-09-30T13:25:22.380Z,99520.97
2022-09-30T13:27:53.705Z,99524.78
2022-09-30T13:30:45.812Z,99527.88
2022-09-30T13:33:43.754Z,99521.09
2022-09-30T13:36:29.466Z,99527.63
2022-09-30T13:39:26.542Z,99529.97
2022-09-30T13:42:12.875Z,99523.00
2022-09-30T13:44:57.230Z,99527.41
2022-09-30T13:47:31.138Z,99527.84
2022-09-30T13:50:03.412Z,99533.66
2022-09-30T13:52:34.553Z,99539.09
2022-09-30T13:55:09.468Z,99537.38
2022-09-30T13:57:48.992Z,99544.91
2022-09-30T14:00:19.362Z,99541.47
2022-09-30T14:03:13.538Z,99538.53
2022-09-30T14:05:50.802Z,99538.41
2022-09-30T14:08:40.986Z,99534.34
2022-09-30T14:11:21.820Z,99523.78
2022-09-30T14:14:02.485Z,99532.31
2022-09-30T14:17:00.850Z,99536.72
2022-09-30T14:19:58.227Z,99540.28
2022-09-30T14:22:29.895Z,99522.94
2022-09-30T14:24:58.517Z,99525.16
2022-09-30T14:27:37.116Z,99530.59
2022-09-30T14:30:12.773Z,99524.19
2022-09-30T14:32:46.050Z,99530.59
2022-09-30T14:35:16.308Z,99533.25
2022-09-30T14:37:47.792Z,99525.94
2022-09-30T14:40:18.911Z,99525.94
2022-09-30T14:42:48.828Z,99526.06
2022-09-30T14:45:26.667Z,99522.47
2022-09-30T14:47:58.365Z,99522.28
2022-09-30T14:50:30.914Z,99523.13
2022-09-30T14:53:00.403Z,99522.19
2022-09-30T14:55:30.696Z,99518.91
2022-09-30T14:58:22.429Z,99523.28
2022-09-30T15:00:59.259Z,99531.41
2022-09-30T15:03:27.845Z,99524.03
2022-09-30T15:05:56.823Z,99528.81
2022-09-30T15:08:25.120Z,99532.25
2022-09-30T15:10:54.884Z,99527.25
2022-09-30T15:13:24.864Z,99530.81
2022-09-30T15:15:53.806Z,99524.91
2022-09-30T15:18:31.231Z,99532.22
2022-09-30T15:21:02.356Z,99528.19
2022-09-30T15:23:32.780Z,99529.16
2022-09-30T15:26:01.580Z,99533.56
2022-09-30T15:28:29.464Z,99523.31
2022-09-30T15:30:59.761Z,99519.75
2022-09-30T15:33:31.657Z,99521.50
2022-09-30T15:36:04.351Z,99527.56
2022-09-30T15:38:34.022Z,99527.31
2022-09-30T15:41:04.761Z,99534.22
2022-09-30T15:43:36.580Z,99526.31
2022-09-30T15:46:28.705Z,99525.41
2022-09-30T15:48:59.449Z,99514.81
2022-09-30T15:51:33.968Z,99527.94
2022-09-30T15:54:03.468Z,99531.28
2022-09-30T15:56:36.532Z,99529.88
2022-09-30T15:59:07.576Z,99535.84
2022-09-30T16:01:38.690Z,99530.78
2022-09-30T16:04:10.911Z,99526.72
2022-09-30T16:06:46.129Z,99516.75
2022-09-30T16:09:24.469Z,99510.69
2022-09-30T16:12:02.791Z,99513.22
2022-09-30T16:14:33.653Z,99518.34
2022-09-30T16:17:06.040Z,99521.47
2022-09-30T16:19:34.064Z,99520.28
2022-09-30T16:22:01.566Z,99530.25
2022-09-30T16:24:49.115Z,99529.13
2022-09-30T16:27:29.064Z,99523.25
2022-09-30T16:29:57.537Z,99524.25
2022-09-30T16:32:27.864Z,99527.88
2022-09-30T16:34:58.392Z,99516.91
2022-09-30T16:37:25.963Z,99510.28
2022-09-30T16:39:53.545Z,99515.34
2022-09-30T16:42:21.173Z,99514.44
2022-09-30T16:44:48.730Z,99512.41
2022-09-30T16:47:17.779Z,99521.16
2022-09-30T16:49:50.982Z,99512.28
2022-09-30T16:52:18.385Z,99523.06
2022-09-30T16:54:45.931Z,99516.53
2022-09-30T16:57:15.185Z,99518.22
2022-09-30T16:59:43.136Z,99517.97
2022-09-30T17:02:15.635Z,99524.31
2022-09-30T17:04:45.246Z,99523.72
2022-09-30T17:07:15.129Z,99528.22
2022-09-30T17:09:44.052Z,99536.28
2022-09-30T17:12:12.787Z,99533.72
2022-09-30T17:14:42.906Z,99545.88
2022-09-30T17:17:13.717Z,99551.94
2022-09-30T17:19:41.777Z,99547.59
2022-09-30T17:22:09.352Z,99541.59
2022-09-30T17:24:38.284Z,99545.88
2022-09-30T17:27:06.652Z,99545.84
2022-09-30T17:29:34.152Z,99551.03
2022-09-30T17:32:02.310Z,99555.25
2022-09-30T17:34:30.131Z,99563.81
2022-09-30T17:36:57.813Z,99562.88
2022-09-30T17:39:26.683Z,99564.53
2022-09-30T17:42:13.028Z,99563.59
2022-09-30T17:44:40.552Z,99571.25
2022-09-30T17:47:08.084Z,99577.22
2022-09-30T17:49:36.974Z,99578.81
2022-09-30T17:52:05.347Z,99582.19
2022-09-30T17:54:34.345Z,99582.97
2022-09-30T17:57:03.202Z,99591.53
2022-09-30T17:59:30.750Z,99595.78
2022-09-30T18:01:58.370Z,99589.66
2022-09-30T18:04:26.903Z,99595.59
2022-09-30T18:06:54.923Z,99602.38
2022-09-30T18:09:23.242Z,99599.66
2022-09-30T18:11:50.805Z,99607.28
2022-09-30T18:14:19.672Z,99611.50
2022-09-30T18:16:47.300Z,99613.94
2022-09-30T18:19:15.031Z,99607.78
2022-09-30T18:21:42.598Z,99606.84
2022-09-30T18:24:11.784Z,99605.88
2022-09-30T18:26:39.288Z,99618.69
2022-09-30T18:29:07.651Z,99628.88
2022-09-30T18:31:38.663Z,99621.88
2022-09-30T18:34:07.682Z,99630.41
2022-09-30T18:36:37.042Z,99632.03
2022-09-30T18:39:04.823Z,99633.66
2022-09-30T18:41:33.788Z,99650.75
2022-09-30T18:44:03.330Z,99653.28
2022-09-30T18:46:31.268Z,99652.28
2022-09-30T18:49:00.505Z,99670.19
2022-09-30T18:51:29.008Z,99662.34
2022-09-30T18:53:58.959Z,99668.22
2022-09-30T18:56:31.724Z,99668.13
2022-09-30T18:58:59.437Z,99663.75
2022-09-30T19:01:27.644Z,99658.50
2022-09-30T19:03:55.436Z,99654.91
2022-09-30T19:06:24.382Z,99656.47
2022-09-30T19:08:51.957Z,99651.13
2022-09-30T19:11:19.498Z,99650.09
2022-09-30T19:13:48.145Z,99645.78
2022-09-30T19:16:18.217Z,99641.28
2022-09-30T19:18:46.311Z,99635.97
2022-09-30T19:21:20.022Z,99634.22
2022-09-30T19:23:49.462Z,99624.78
2022-09-30T19:26:16.997Z,99624.66
2022-09-30T19:28:44.543Z,99619.44
2022-09-30T19:31:15.296Z,99617.63
2022-09-30T19:33:55.343Z,99610.78
2022-09-30T19:36:26.683Z,99614.09
2022-09-30T19:39:10.554Z,99626.09
2022-09-30T19:41:38.537Z,99622.66
2022-09-30T19:44:06.161Z,99623.53
2022-09-30T19:46:34.239Z,99620.09
2022-09-30T19:49:02.003Z,99622.66
2022-09-30T19:51:31.081Z,99626.09
2022-09-30T19:54:06.805Z,99629.31
2022-09-30T19:56:36.191Z,99624.13
2022-09-30T19:59:04.439Z,99630.78
2022-09-30T20:01:34.589Z,99629.94
2022-09-30T20:04:05.214Z,99630.78
2022-09-30T20:06:34.123Z,99626.56
2022-09-30T20:09:05.776Z,99630.78
2022-09-30T20:11:36.097Z,99640.22
2022-09-30T20:14:22.915Z,99647.97
2022-09-30T20:16:50.790Z,99638.47
2022-09-30T20:19:19.238Z,99641.03
2022-09-30T20:21:47.672Z,99636.56
2022-09-30T20:24:18.099Z,99646.75
2022-09-30T20:26:46.604Z,99645.78
2022-09-30T20:29:14.784Z,99644.03
2022-09-30T20:31:43.771Z,99647.34
2022-09-30T20:34:13.279Z,99654.94
2022-09-30T20:36:41.220Z,99657.41
2022-09-30T20:39:09.517Z,99664.16
2022-09-30T20:41:40.163Z,99664.09
2022-09-30T20:44:10.441Z,99675.97
2022-09-30T20:46:38.418Z,99679.28
2022-09-30T20:49:06.193Z,99674.91
2022-09-30T20:51:34.326Z,99684.19
2022-09-30T20:54:02.216Z,99679.06
2022-09-30T20:56:49.620Z,99672.94
2022-09-30T20:59:19.907Z,99674.50
2022-09-30T21:01:47.510Z,99668.34
2022-09-30T21:04:15.157Z,99678.47
2022-09-30T21:06:42.716Z,99670.63
2022-09-30T21:09:12.482Z,99669.63
2022-09-30T21:11:40.956Z,99674.66
2022-09-30T21:14:08.728Z,99683.13
2022-09-30T21:16:37.664Z,99689.81
2022-09-30T21:19:05.531Z,99703.50
2022-09-30T21:21:33.282Z,99709.34
2022-09-30T21:24:01.393Z,99703.31
2022-09-30T21:26:29.879Z,99702.38
2022-09-30T21:28:57.376Z,99701.50
2022-09-30T21:31:27.484Z,99701.50
2022-09-30T21:33:58.164Z,99697.94
2022-09-30T21:36:26.679Z,99705.59
2022-09-30T21:38:54.716Z,99708.94
2022-09-30T21:41:22.478Z,99707.94
2022-09-30T21:43:50.112Z,99701.88
2022-09-30T21:46:18.390Z,99697.50
2022-09-30T21:48:46.409Z,99697.44
2022-09-30T21:51:16.003Z,99691.34
2022-09-30T21:53:43.673Z,99699.00
2022-09-30T21:56:12.359Z,99699.78
2022-09-30T21:58:40.386Z,99688.47
2022-09-30T22:01:08.716Z,99693.50
2022-09-30T22:03:38.335Z,99690.88
2022-09-30T22:06:08.018Z,99687.34
2022-09-30T22:08:40.051Z,99679.47
2022-09-30T22:11:09.109Z,99682.00
2022-09-30T22:13:36.617Z,99682.75
2022-09-30T22:16:06.245Z,99673.34
2022-09-30T22:18:34.510Z,99676.63
2022-09-30T22:21:04.456Z,99679.25
2022-09-30T22:23:32.132Z,99674.94
2022-09-30T22:26:08.771Z,99682.59
2022-09-30T22:28:36.660Z,99678.25
2022-09-30T22:31:14.812Z,99684.16
2022-09-30T22:33:59.859Z,99691.00
2022-09-30T22:36:45.335Z,99679.03
2022-09-30T22:39:13.184Z,99675.56
2022-09-30T22:41:42.610Z,99677.25
2022-09-30T22:44:10.147Z,99684.06
2022-09-30T22:46:39.253Z,99681.50
2022-09-30T22:49:07.284Z,99673.72
2022-09-30T22:51:34.980Z,99671.03
2022-09-30T22:54:03.919Z,99668.41
2022-09-30T22:56:32.150Z,99665.81
2022-09-30T22:59:01.328Z,99658.91
2022-09-30T23:01:29.639Z,99664.00
2022-09-30T23:03:57.360Z,99669.09
2022-09-30T23:06:25.241Z,99663.00
2022-09-30T23:08:54.295Z,99654.41
2022-09-30T23:11:23.061Z,99659.53
2022-09-30T23:13:58.173Z,99667.16
2022-09-30T23:16:28.138Z,99677.41
2022-09-30T23:18:56.206Z,99674.81
2022-09-30T23:21:23.786Z,99674.69
2022-09-30T23:23:51.319Z,99680.72
2022-09-30T23:26:21.168Z,99674.63
2022-09-30T23:28:49.188Z,99674.63
2022-09-30T23:31:18.071Z,99674.50
2022-09-30T23:33:49.474Z,99670.25
2022-09-30T23:36:19.671Z,99671.03
2022-09-30T23:38:47.817Z,99673.66
2022-09-30T23:41:15.478Z,99674.44
2022-09-30T23:43:45.687Z,99676.28
2022-09-30T23:46:13.446Z,99675.38
2022-09-30T23:48:41.053Z,99681.41
2022-09-30T23:51:10.605Z,99677.16
2022-09-30T23:53:38.724Z,99674.50
2022-09-30T23:56:08.241Z,99671.16
2022-09-30T23:58:36.696Z,99666.69
